createdAt,value
2019-05-23T00:00:53.490Z,65.20
2019-05-23T00:01:56.497Z,65.00
2019-05-23T00:02:58.241Z,65.10
2019-05-23T00:04:07.974Z,65.40
2019-05-23T00:05:11.824Z,65.60
2019-05-23T00:06:29.921Z,65.60
2019-05-23T00:07:32.359Z,65.50
2019-05-23T00:08:34.167Z,65.50
2019-05-23T00:09:35.189Z,65.50
2019-05-23T00:10:38.608Z,65.50
2019-05-23T00:11:47.567Z,65.40
2019-05-23T00:13:03.114Z,65.40
2019-05-23T00:14:09.842Z,65.40
2019-05-23T00:15:27.221Z,65.50
2019-05-23T00:16:30.310Z,65.40
2019-05-23T00:17:32.438Z,64.70
2019-05-23T00:18:33.751Z,65.30
2019-05-23T00:19:35.961Z,65.80
2019-05-23T00:20:37.572Z,65.90
2019-05-23T00:21:38.594Z,66.00
2019-05-23T00:22:39.816Z,66.00
2019-05-23T00:23:41.750Z,66.00
2019-05-23T00:24:43.321Z,65.90
2019-05-23T00:25:44.577Z,66.10
2019-05-23T00:26:46.493Z,66.20
2019-05-23T00:27:47.816Z,66.20
2019-05-23T00:28:49.528Z,66.50
2019-05-23T00:29:50.639Z,66.70
2019-05-23T00:30:57.281Z,66.70
2019-05-23T00:32:06.033Z,66.80
2019-05-23T00:33:08.633Z,66.80
2019-05-23T00:34:10.255Z,66.60
2019-05-23T00:35:12.968Z,66.70
2019-05-23T00:36:15.222Z,66.70
2019-05-23T00:37:19.208Z,66.80
2019-05-23T00:38:20.620Z,66.80
2019-05-23T00:39:24.060Z,66.60
2019-05-23T00:40:25.665Z,66.70
2019-05-23T00:41:27.082Z,66.80
2019-05-23T00:42:29.004Z,66.80
2019-05-23T00:43:30.449Z,67.00
2019-05-23T00:44:31.981Z,67.00
2019-05-23T00:45:33.697Z,67.00
2019-05-23T00:46:36.808Z,66.80
2019-05-23T00:47:38.812Z,66.70
2019-05-23T00:48:40.427Z,66.60
2019-05-23T00:49:41.947Z,66.60
2019-05-23T00:50:43.949Z,66.80
2019-05-23T00:51:45.687Z,66.80
2019-05-23T00:52:48.997Z,66.60
2019-05-23T00:53:50.847Z,66.60
2019-05-23T00:54:51.974Z,66.60
2019-05-23T00:55:53.112Z,66.60
2019-05-23T00:56:54.536Z,66.50
2019-05-23T00:57:57.657Z,66.50
2019-05-23T00:58:58.683Z,66.50
2019-05-23T01:00:00.188Z,66.60
2019-05-23T01:01:02.308Z,66.60
2019-05-23T01:02:05.318Z,66.50
2019-05-23T01:03:07.411Z,66.50
2019-05-23T01:04:10.220Z,66.50
2019-05-23T01:05:12.245Z,66.70
2019-05-23T01:06:15.164Z,67.00
2019-05-23T01:07:18.580Z,67.00
2019-05-23T01:08:20.801Z,67.00
2019-05-23T01:09:22.141Z,67.00
2019-05-23T01:10:23.681Z,67.10
2019-05-23T01:11:25.004Z,67.20
2019-05-23T01:12:27.605Z,67.10
2019-05-23T01:13:29.220Z,67.40
2019-05-23T01:14:30.801Z,67.30
2019-05-23T01:15:33.167Z,67.30
2019-05-23T01:16:34.899Z,67.20
2019-05-23T01:17:36.980Z,67.10
2019-05-23T01:18:38.401Z,67.30
2019-05-23T01:19:40.442Z,67.40
2019-05-23T01:20:46.112Z,68.10
2019-05-23T01:21:55.080Z,67.50
2019-05-23T01:22:57.216Z,67.60
2019-05-23T01:24:00.534Z,67.40
2019-05-23T01:25:01.963Z,67.50
2019-05-23T01:26:02.983Z,67.50
2019-05-23T01:27:06.393Z,67.60
2019-05-23T01:28:07.500Z,67.50
2019-05-23T01:29:09.655Z,67.50
2019-05-23T01:30:13.490Z,67.50
2019-05-23T01:31:19.506Z,67.40
2019-05-23T01:32:25.965Z,67.40
2019-05-23T01:33:27.084Z,67.50
2019-05-23T01:34:30.112Z,67.60
2019-05-23T01:35:33.224Z,68.30
2019-05-23T01:36:36.232Z,67.50
2019-05-23T01:37:37.355Z,67.70
2019-05-23T01:38:38.370Z,67.90
2019-05-23T01:39:39.786Z,67.90
2019-05-23T01:40:40.800Z,67.90
2019-05-23T01:41:42.717Z,68.00
2019-05-23T01:42:43.909Z,67.90
2019-05-23T01:43:45.048Z,68.10
2019-05-23T01:44:46.772Z,68.00
2019-05-23T01:45:47.881Z,67.90
2019-05-23T01:46:49.708Z,67.90
2019-05-23T01:47:59.791Z,67.80
2019-05-23T01:49:01.753Z,68.00
2019-05-23T01:50:05.978Z,68.00
2019-05-23T01:51:07.392Z,68.10
2019-05-23T01:52:10.321Z,68.10
2019-05-23T01:53:12.840Z,68.20
2019-05-23T01:54:13.845Z,68.30
2019-05-23T01:55:15.278Z,68.30
2019-05-23T01:56:16.688Z,68.20
2019-05-23T01:57:18.231Z,68.20
2019-05-23T01:58:19.443Z,68.20
2019-05-23T01:59:21.066Z,68.10
2019-05-23T02:00:24.897Z,68.10
2019-05-23T02:01:26.313Z,68.00
2019-05-23T02:02:28.148Z,68.20
2019-05-23T02:03:29.845Z,68.20
2019-05-23T02:04:30.849Z,68.10
2019-05-23T02:05:32.476Z,68.10
2019-05-23T02:06:33.476Z,68.10
2019-05-23T02:07:34.554Z,68.30
2019-05-23T02:08:35.848Z,68.30
2019-05-23T02:09:37.770Z,68.30
2019-05-23T02:10:39.092Z,68.30
2019-05-23T02:11:40.616Z,68.40
2019-05-23T02:12:42.517Z,68.30
2019-05-23T02:13:43.625Z,68.20
2019-05-23T02:14:45.132Z,68.30
2019-05-23T02:15:46.153Z,68.40
2019-05-23T02:16:47.185Z,68.90
2019-05-23T02:17:49.208Z,68.90
2019-05-23T02:18:50.340Z,69.00
2019-05-23T02:19:52.456Z,69.10
2019-05-23T02:20:55.684Z,69.10
2019-05-23T02:21:56.805Z,69.00
2019-05-23T02:22:58.137Z,69.00
2019-05-23T02:23:59.952Z,69.30
2019-05-23T02:25:02.204Z,69.10
2019-05-23T02:26:04.120Z,69.00
2019-05-23T02:27:07.031Z,69.10
2019-05-23T02:28:08.085Z,69.00
2019-05-23T02:29:09.504Z,69.00
2019-05-23T02:30:33.077Z,69.00
2019-05-23T02:31:20.773Z,68.90
2019-05-23T02:32:22.788Z,69.00
2019-05-23T02:33:24.419Z,69.00
2019-05-23T02:34:25.654Z,69.00
2019-05-23T02:35:26.851Z,69.00
2019-05-23T02:36:29.987Z,69.00
2019-05-23T02:37:41.820Z,69.00
2019-05-23T02:38:53.890Z,69.00
2019-05-23T02:40:05.750Z,69.00
2019-05-23T02:41:11.751Z,69.00
2019-05-23T02:42:14.668Z,69.00
2019-05-23T02:43:20.840Z,68.90
2019-05-23T02:44:23.746Z,68.90
2019-05-23T02:45:27.760Z,68.90
2019-05-23T02:46:30.701Z,68.90
2019-05-23T02:47:43.472Z,69.00
2019-05-23T02:48:47.804Z,68.90
2019-05-23T02:49:49.022Z,69.00
2019-05-23T02:50:57.768Z,69.10
2019-05-23T02:52:22.516Z,69.30
2019-05-23T02:53:27.437Z,69.20
2019-05-23T02:54:29.560Z,69.00
2019-05-23T02:55:36.373Z,69.10
2019-05-23T02:56:38.036Z,69.30
2019-05-23T02:57:39.860Z,69.40
2019-05-23T02:59:02.394Z,69.30
2019-05-23T03:00:25.790Z,69.20
2019-05-23T03:01:41.028Z,69.20
2019-05-23T03:02:55.077Z,69.60
2019-05-23T03:04:01.805Z,70.00
2019-05-23T03:05:07.931Z,70.30
2019-05-23T03:06:11.760Z,70.30
2019-05-23T03:07:18.384Z,71.00
2019-05-23T03:08:20.930Z,70.40
2019-05-23T03:09:23.860Z,70.40
2019-05-23T03:10:27.997Z,70.40
2019-05-23T03:11:34.301Z,70.30
2019-05-23T03:12:38.025Z,70.30
2019-05-23T03:13:40.937Z,70.10
2019-05-23T03:14:42.881Z,70.00
2019-05-23T03:15:45.084Z,70.00
2019-05-23T03:16:48.552Z,70.20
2019-05-23T03:17:56.190Z,70.30
2019-05-23T03:19:08.445Z,70.10
2019-05-23T03:20:10.550Z,70.30
2019-05-23T03:21:11.997Z,70.20
2019-05-23T03:22:28.585Z,70.10
2019-05-23T03:23:32.062Z,70.30
2019-05-23T03:24:33.081Z,70.10
2019-05-23T03:25:38.825Z,70.00
2019-05-23T03:26:44.068Z,70.00
2019-05-23T03:27:46.588Z,70.10
2019-05-23T03:28:47.790Z,70.40
2019-05-23T03:29:51.122Z,70.50
2019-05-23T03:31:25.696Z,70.50
2019-05-23T03:32:02.121Z,70.80
2019-05-23T03:33:07.898Z,70.70
2019-05-23T03:34:09.829Z,70.70
2019-05-23T03:35:18.947Z,70.50
2019-05-23T03:36:20.075Z,70.60
2019-05-23T03:37:21.394Z,70.40
2019-05-23T03:38:22.428Z,70.40
2019-05-23T03:39:23.645Z,70.20
2019-05-23T03:40:25.861Z,70.30
2019-05-23T03:41:27.581Z,70.30
2019-05-23T03:42:28.593Z,70.40
2019-05-23T03:43:30.306Z,70.50
2019-05-23T03:44:32.123Z,70.60
2019-05-23T03:45:39.549Z,70.80
2019-05-23T03:46:40.667Z,70.40
2019-05-23T03:47:43.091Z,70.30
2019-05-23T03:48:46.199Z,70.20
2019-05-23T03:49:47.600Z,70.10
2019-05-23T03:50:51.618Z,70.10
2019-05-23T03:51:54.964Z,70.00
2019-05-23T03:52:56.398Z,70.20
2019-05-23T03:54:00.205Z,70.20
2019-05-23T03:55:04.821Z,70.40
2019-05-23T03:56:06.932Z,70.50
2019-05-23T03:57:08.249Z,70.30
2019-05-23T03:58:10.965Z,70.20
2019-05-23T03:59:13.594Z,70.80
2019-05-23T04:00:16.634Z,69.90
2019-05-23T04:01:19.645Z,70.00
2019-05-23T04:02:22.568Z,69.70
2019-05-23T04:03:24.330Z,69.80
2019-05-23T04:04:25.492Z,69.80
2019-05-23T04:05:28.819Z,69.40
2019-05-23T04:06:30.819Z,70.20
2019-05-23T04:07:32.755Z,69.70
2019-05-23T04:08:34.052Z,69.60
2019-05-23T04:09:35.165Z,69.60
2019-05-23T04:10:36.716Z,69.50
2019-05-23T04:11:38.229Z,69.80
2019-05-23T04:12:39.605Z,69.70
2019-05-23T04:13:41.030Z,69.90
2019-05-23T04:14:45.153Z,70.00
2019-05-23T04:15:47.356Z,70.20
2019-05-23T04:16:48.481Z,70.30
2019-05-23T04:17:49.884Z,70.50
2019-05-23T04:18:51.203Z,70.60
2019-05-23T04:19:52.512Z,70.70
2019-05-23T04:20:53.619Z,70.50
2019-05-23T04:21:55.252Z,70.40
2019-05-23T04:22:56.770Z,70.20
2019-05-23T04:23:57.893Z,70.30
2019-05-23T04:25:01.957Z,70.10
2019-05-23T04:26:02.347Z,70.30
2019-05-23T04:27:04.237Z,70.60
2019-05-23T04:28:05.460Z,70.50
2019-05-23T04:29:06.480Z,70.50
2019-05-23T04:30:08.981Z,70.70
2019-05-23T04:31:13.248Z,70.70
2019-05-23T04:32:13.892Z,71.00
2019-05-23T04:33:14.910Z,71.30
2019-05-23T04:34:16.326Z,71.40
2019-05-23T04:35:17.754Z,71.50
2019-05-23T04:36:19.378Z,71.30
2019-05-23T04:37:20.482Z,71.70
2019-05-23T04:38:21.598Z,71.60
2019-05-23T04:39:22.620Z,71.60
2019-05-23T04:40:23.625Z,71.90
2019-05-23T04:41:24.750Z,71.90
2019-05-23T04:42:25.788Z,71.80
2019-05-23T04:43:26.807Z,71.90
2019-05-23T04:44:28.018Z,72.20
2019-05-23T04:45:30.621Z,72.10
2019-05-23T04:46:32.137Z,72.10
2019-05-23T04:47:33.681Z,72.10
2019-05-23T04:48:34.883Z,72.10
2019-05-23T04:49:35.997Z,71.90
2019-05-23T04:50:37.418Z,71.80
2019-05-23T04:51:39.122Z,71.80
2019-05-23T04:52:40.473Z,71.90
2019-05-23T04:53:41.493Z,72.00
2019-05-23T04:54:44.813Z,72.00
2019-05-23T04:55:46.736Z,72.00
2019-05-23T04:56:48.506Z,71.80
2019-05-23T04:57:51.326Z,71.40
2019-05-23T04:58:52.342Z,71.30
2019-05-23T04:59:53.452Z,71.20
2019-05-23T05:00:54.672Z,70.90
2019-05-23T05:01:55.782Z,70.90
2019-05-23T05:02:57.013Z,70.90
2019-05-23T05:03:58.483Z,70.80
2019-05-23T05:05:00.252Z,70.90
2019-05-23T05:06:01.302Z,70.80
2019-05-23T05:07:03.725Z,71.10
2019-05-23T05:08:04.928Z,71.00
2019-05-23T05:09:07.986Z,71.20
2019-05-23T05:10:13.317Z,71.00
2019-05-23T05:11:14.420Z,71.10
2019-05-23T05:12:15.844Z,71.10
2019-05-23T05:13:16.912Z,71.30
2019-05-23T05:14:18.416Z,71.40
2019-05-23T05:15:19.940Z,71.40
2019-05-23T05:16:21.251Z,71.70
2019-05-23T05:17:22.415Z,71.70
2019-05-23T05:18:23.925Z,72.00
2019-05-23T05:19:25.245Z,71.40
2019-05-23T05:20:26.344Z,71.30
2019-05-23T05:21:27.357Z,71.20
2019-05-23T05:22:28.376Z,72.10
2019-05-23T05:23:29.492Z,71.20
2019-05-23T05:24:30.508Z,71.00
2019-05-23T05:25:31.521Z,70.50
2019-05-23T05:26:32.746Z,70.50
2019-05-23T05:27:34.465Z,70.50
2019-05-23T05:28:35.907Z,70.40
2019-05-23T05:29:37.097Z,70.00
2019-05-23T05:30:38.332Z,70.10
2019-05-23T05:31:39.385Z,70.00
2019-05-23T05:32:44.798Z,69.90
2019-05-23T05:33:43.352Z,69.50
2019-05-23T05:34:44.370Z,69.50
2019-05-23T05:35:45.988Z,70.40
2019-05-23T05:36:47.952Z,69.30
2019-05-23T05:37:49.086Z,69.30
2019-05-23T05:38:50.117Z,69.30
2019-05-23T05:39:51.446Z,69.30
2019-05-23T05:40:55.205Z,69.40
2019-05-23T05:41:56.622Z,69.00
2019-05-23T05:42:59.253Z,68.70
2019-05-23T05:44:00.904Z,68.10
2019-05-23T05:45:05.117Z,68.10
2019-05-23T05:46:06.633Z,68.10
2019-05-23T05:47:09.245Z,68.00
2019-05-23T05:48:10.583Z,67.90
2019-05-23T05:49:11.898Z,67.40
2019-05-23T05:50:13.721Z,67.10
2019-05-23T05:51:14.859Z,66.70
2019-05-23T05:52:16.180Z,66.20
2019-05-23T05:53:18.088Z,66.30
2019-05-23T05:54:19.605Z,66.10
2019-05-23T05:55:20.637Z,65.60
2019-05-23T05:56:21.784Z,66.20
2019-05-23T05:57:22.969Z,65.70
2019-05-23T05:58:24.177Z,65.40
2019-05-23T05:59:25.784Z,65.10
2019-05-23T06:00:28.918Z,65.20
2019-05-23T06:01:33.952Z,64.70
2019-05-23T06:02:34.125Z,64.50
2019-05-23T06:03:35.156Z,64.80
2019-05-23T06:04:36.584Z,64.20
2019-05-23T06:05:45.875Z,64.10
2019-05-23T06:06:50.204Z,63.80
2019-05-23T06:07:51.410Z,63.70
2019-05-23T06:08:54.353Z,63.70
2019-05-23T06:09:57.189Z,63.30
2019-05-23T06:10:58.297Z,63.70
2019-05-23T06:11:59.705Z,63.30
2019-05-23T06:13:00.922Z,63.10
2019-05-23T06:14:02.047Z,62.70
2019-05-23T06:15:06.607Z,62.10
2019-05-23T06:16:08.125Z,63.00
2019-05-23T06:17:11.053Z,63.10
2019-05-23T06:18:12.971Z,62.80
2019-05-23T06:19:14.134Z,62.80
2019-05-23T06:20:15.433Z,62.50
2019-05-23T06:21:18.478Z,62.40
2019-05-23T06:22:19.490Z,62.70
2019-05-23T06:23:20.513Z,62.90
2019-05-23T06:24:39.872Z,62.20
2019-05-23T06:25:25.060Z,62.40
2019-05-23T06:26:26.076Z,61.90
2019-05-23T06:27:27.093Z,62.10
2019-05-23T06:28:29.991Z,62.10
2019-05-23T06:29:31.215Z,62.10
2019-05-23T06:30:32.941Z,61.30
2019-05-23T06:31:36.161Z,61.70
2019-05-23T06:32:37.697Z,60.90
2019-05-23T06:33:39.041Z,60.80
2019-05-23T06:34:40.867Z,61.00
2019-05-23T06:35:43.286Z,61.30
2019-05-23T06:36:44.497Z,62.00
2019-05-23T06:37:46.108Z,61.20
2019-05-23T06:38:47.520Z,61.20
2019-05-23T06:39:48.808Z,61.20
2019-05-23T06:40:50.221Z,61.40
2019-05-23T06:41:51.357Z,61.30
2019-05-23T06:42:52.713Z,60.80
2019-05-23T06:43:54.428Z,60.80
2019-05-23T06:44:55.551Z,60.90
2019-05-23T06:45:56.657Z,60.90
2019-05-23T06:46:58.265Z,61.10
2019-05-23T06:47:59.362Z,61.10
2019-05-23T06:49:00.393Z,61.10
2019-05-23T06:50:01.406Z,60.90
2019-05-23T06:51:02.519Z,61.00
2019-05-23T06:52:04.133Z,60.50
2019-05-23T06:53:05.665Z,60.40
2019-05-23T06:54:08.094Z,60.40
2019-05-23T06:55:09.517Z,60.90
2019-05-23T06:56:11.531Z,60.50
2019-05-23T06:57:12.752Z,60.10
2019-05-23T06:58:14.166Z,60.30
2019-05-23T06:59:15.840Z,60.20
2019-05-23T07:00:19.225Z,60.30
2019-05-23T07:01:20.353Z,60.00
2019-05-23T07:02:21.782Z,60.10
2019-05-23T07:03:39.877Z,59.60
2019-05-23T07:04:26.212Z,59.60
2019-05-23T07:05:31.536Z,59.30
2019-05-23T07:06:32.939Z,58.90
2019-05-23T07:07:35.311Z,58.80
2019-05-23T07:08:36.325Z,58.70
2019-05-23T07:09:37.667Z,58.80
2019-05-23T07:10:40.177Z,58.60
2019-05-23T07:11:41.302Z,58.70
2019-05-23T07:12:43.017Z,58.60
2019-05-23T07:13:45.836Z,58.60
2019-05-23T07:14:46.866Z,58.80
2019-05-23T07:15:47.883Z,59.40
2019-05-23T07:16:50.382Z,59.30
2019-05-23T07:17:52.068Z,59.10
2019-05-23T07:18:53.148Z,58.60
2019-05-23T07:19:54.378Z,58.70
2019-05-23T07:20:55.396Z,58.70
2019-05-23T07:21:56.513Z,58.80
2019-05-23T07:22:57.681Z,58.70
2019-05-23T07:23:59.040Z,58.40
2019-05-23T07:25:00.513Z,58.80
2019-05-23T07:26:01.666Z,58.80
2019-05-23T07:27:02.992Z,58.70
2019-05-23T07:28:04.115Z,57.50
2019-05-23T07:29:05.524Z,56.70
2019-05-23T07:30:10.467Z,57.30
2019-05-23T07:31:11.695Z,57.40
2019-05-23T07:32:13.408Z,57.40
2019-05-23T07:33:14.492Z,56.30
2019-05-23T07:34:16.026Z,56.80
2019-05-23T07:35:17.349Z,57.20
2019-05-23T07:36:18.374Z,57.30
2019-05-23T07:37:19.685Z,56.60
2019-05-23T07:38:20.817Z,56.20
2019-05-23T07:39:22.256Z,56.60
2019-05-23T07:40:26.014Z,56.80
2019-05-23T07:41:27.198Z,57.30
2019-05-23T07:42:28.539Z,57.20
2019-05-23T07:43:30.088Z,56.90
2019-05-23T07:44:45.949Z,56.80
2019-05-23T07:45:43.177Z,56.80
2019-05-23T07:46:44.758Z,56.70
2019-05-23T07:47:46.267Z,56.50
2019-05-23T07:48:47.393Z,55.70
2019-05-23T07:49:48.604Z,55.90
2019-05-23T07:50:49.622Z,55.40
2019-05-23T07:51:50.947Z,55.80
2019-05-23T07:52:52.537Z,56.00
2019-05-23T07:54:04.856Z,56.00
2019-05-23T07:55:08.448Z,55.90
2019-05-23T07:56:14.702Z,55.60
2019-05-23T07:57:16.606Z,55.70
2019-05-23T07:58:18.216Z,55.30
2019-05-23T07:59:19.622Z,54.60
2019-05-23T08:00:23.045Z,55.00
2019-05-23T08:01:25.983Z,54.90
2019-05-23T08:02:28.885Z,55.30
2019-05-23T08:03:32.409Z,55.30
2019-05-23T08:04:34.117Z,55.60
2019-05-23T08:05:35.243Z,55.40
2019-05-23T08:06:36.859Z,55.40
2019-05-23T08:07:38.170Z,55.40
2019-05-23T08:08:39.286Z,55.40
2019-05-23T08:09:40.300Z,55.40
2019-05-23T08:10:41.634Z,55.20
2019-05-23T08:11:42.786Z,55.20
2019-05-23T08:12:43.897Z,54.30
2019-05-23T08:13:45.517Z,54.40
2019-05-23T08:14:46.519Z,54.50
2019-05-23T08:15:47.954Z,53.90
2019-05-23T08:16:49.168Z,53.00
2019-05-23T08:17:50.380Z,53.00
2019-05-23T08:18:51.393Z,53.30
2019-05-23T08:19:52.612Z,52.60
2019-05-23T08:20:54.131Z,52.40
2019-05-23T08:21:55.144Z,53.00
2019-05-23T08:22:56.466Z,52.40
2019-05-23T08:23:57.484Z,52.50
2019-05-23T08:24:58.795Z,52.10
2019-05-23T08:26:00.131Z,52.20
2019-05-23T08:27:02.055Z,52.10
2019-05-23T08:28:03.964Z,52.40
2019-05-23T08:29:24.826Z,52.20
2019-05-23T08:30:09.528Z,51.90
2019-05-23T08:31:10.819Z,52.40
2019-05-23T08:32:11.945Z,52.60
2019-05-23T08:33:13.067Z,51.40
2019-05-23T08:34:14.377Z,51.60
2019-05-23T08:35:17.720Z,51.30
2019-05-23T08:36:18.561Z,51.50
2019-05-23T08:37:19.834Z,51.80
2019-05-23T08:38:21.388Z,50.70
2019-05-23T08:39:22.867Z,49.20
2019-05-23T08:40:26.073Z,48.90
2019-05-23T08:41:27.394Z,49.00
2019-05-23T08:42:28.413Z,49.80
2019-05-23T08:43:29.531Z,49.50
2019-05-23T08:44:31.244Z,50.10
2019-05-23T08:45:32.463Z,50.20
2019-05-23T08:46:34.926Z,49.80
2019-05-23T08:47:35.957Z,50.70
2019-05-23T08:48:37.170Z,49.80
2019-05-23T08:49:38.688Z,50.60
2019-05-23T08:50:40.204Z,50.20
2019-05-23T08:51:41.336Z,49.20
2019-05-23T08:52:42.381Z,48.00
2019-05-23T08:53:43.491Z,47.40
2019-05-23T08:54:46.725Z,47.60
2019-05-23T08:55:47.832Z,47.70
2019-05-23T08:56:49.384Z,47.80
2019-05-23T08:57:53.118Z,47.00
2019-05-23T08:58:54.323Z,47.10
2019-05-23T08:59:55.552Z,48.00
2019-05-23T09:00:56.872Z,47.90
2019-05-23T09:01:58.093Z,48.50
2019-05-23T09:02:59.410Z,48.80
2019-05-23T09:04:01.240Z,48.90
2019-05-23T09:05:06.610Z,49.20
2019-05-23T09:06:08.210Z,49.30
2019-05-23T09:07:09.788Z,48.50
2019-05-23T09:08:11.321Z,48.40
2019-05-23T09:09:28.317Z,47.80
2019-05-23T09:10:17.132Z,47.90
2019-05-23T09:11:18.558Z,47.80
2019-05-23T09:12:19.786Z,47.40
2019-05-23T09:13:21.016Z,44.20
2019-05-23T09:14:22.650Z,46.00
2019-05-23T09:15:24.224Z,43.60
2019-05-23T09:16:25.257Z,45.50
2019-05-23T09:17:26.776Z,45.10
2019-05-23T09:18:27.772Z,43.70
2019-05-23T09:19:28.797Z,43.80
2019-05-23T09:20:29.904Z,43.90
2019-05-23T09:21:31.404Z,45.10
2019-05-23T09:22:32.698Z,44.70
2019-05-23T09:23:33.743Z,44.70
2019-05-23T09:24:34.834Z,43.80
2019-05-23T09:25:35.857Z,43.40
2019-05-23T09:26:37.390Z,43.70
2019-05-23T09:27:38.509Z,43.60
2019-05-23T09:28:39.522Z,43.00
2019-05-23T09:29:40.944Z,42.60
2019-05-23T09:30:42.159Z,42.90
2019-05-23T09:31:43.389Z,42.30
2019-05-23T09:32:44.708Z,42.40
2019-05-23T09:33:45.779Z,40.80
2019-05-23T09:34:46.938Z,40.70
2019-05-23T09:35:48.052Z,41.50
2019-05-23T09:36:49.113Z,40.60
2019-05-23T09:37:50.178Z,42.00
2019-05-23T09:38:51.189Z,37.40
2019-05-23T09:39:52.202Z,40.30
2019-05-23T09:40:53.212Z,39.30
2019-05-23T09:41:54.334Z,39.60
2019-05-23T09:42:55.449Z,39.60
2019-05-23T09:43:56.568Z,39.10
2019-05-23T09:44:57.741Z,39.70
2019-05-23T09:45:58.758Z,38.20
2019-05-23T09:47:00.183Z,38.00
2019-05-23T09:48:01.290Z,39.60
2019-05-23T09:49:04.128Z,40.60
2019-05-23T09:50:09.656Z,40.50
2019-05-23T09:51:10.901Z,40.10
2019-05-23T09:52:12.214Z,39.70
2019-05-23T09:53:13.677Z,39.20
2019-05-23T09:54:15.188Z,39.00
2019-05-23T09:55:17.816Z,38.90
2019-05-23T09:56:18.833Z,38.70
2019-05-23T09:57:20.363Z,38.20
2019-05-23T09:58:21.372Z,38.10
2019-05-23T09:59:22.538Z,37.20
2019-05-23T10:00:25.332Z,37.70
2019-05-23T10:01:26.487Z,37.50
2019-05-23T10:02:27.604Z,37.40
2019-05-23T10:03:28.628Z,36.80
2019-05-23T10:04:29.745Z,37.50
2019-05-23T10:05:42.930Z,36.90
2019-05-23T10:06:33.905Z,36.80
2019-05-23T10:07:34.932Z,37.10
2019-05-23T10:08:35.942Z,35.50
2019-05-23T10:09:36.960Z,36.40
2019-05-23T10:10:38.316Z,37.40
2019-05-23T10:11:39.407Z,37.60
2019-05-23T10:12:40.540Z,38.00
2019-05-23T10:13:41.548Z,37.90
2019-05-23T10:14:42.562Z,38.10
2019-05-23T10:16:00.568Z,37.90
2019-05-23T10:17:01.876Z,38.00
2019-05-23T10:18:03.482Z,38.10
2019-05-23T10:19:04.515Z,38.20
2019-05-23T10:20:06.623Z,37.10
2019-05-23T10:21:07.997Z,37.10
2019-05-23T10:22:09.699Z,38.00
2019-05-23T10:23:10.768Z,38.30
2019-05-23T10:24:12.764Z,37.70
2019-05-23T10:25:14.006Z,38.10
2019-05-23T10:26:15.315Z,38.90
2019-05-23T10:27:17.148Z,37.40
2019-05-23T10:28:18.622Z,37.70
2019-05-23T10:29:19.729Z,36.10
2019-05-23T10:30:21.444Z,36.50
2019-05-23T10:31:22.505Z,36.30
2019-05-23T10:32:23.729Z,37.00
2019-05-23T10:33:24.794Z,36.10
2019-05-23T10:34:25.811Z,36.10
2019-05-23T10:35:27.216Z,36.60
2019-05-23T10:36:28.220Z,36.70
2019-05-23T10:37:29.356Z,37.10
2019-05-23T10:38:30.379Z,36.10
2019-05-23T10:39:33.481Z,36.50
2019-05-23T10:40:34.592Z,37.10
2019-05-23T10:41:35.904Z,37.60
2019-05-23T10:42:37.146Z,37.40
2019-05-23T10:43:38.348Z,37.10
2019-05-23T10:44:39.604Z,38.00
2019-05-23T10:45:41.422Z,37.60
2019-05-23T10:46:42.447Z,36.70
2019-05-23T10:47:43.463Z,35.40
2019-05-23T10:48:44.841Z,36.60
2019-05-23T10:49:46.142Z,35.80
2019-05-23T10:50:47.369Z,36.90
2019-05-23T10:51:48.405Z,34.80
2019-05-23T10:52:49.629Z,35.80
2019-05-23T10:53:50.781Z,35.30
2019-05-23T10:54:51.796Z,35.40
2019-05-23T10:55:53.320Z,35.30
2019-05-23T10:56:54.345Z,35.70
2019-05-23T10:57:55.364Z,34.70
2019-05-23T10:58:56.408Z,36.00
2019-05-23T10:59:57.681Z,34.80
2019-05-23T11:00:59.308Z,35.20
2019-05-23T11:02:00.749Z,35.90
2019-05-23T11:03:02.372Z,36.30
2019-05-23T11:04:03.808Z,35.30
2019-05-23T11:05:12.739Z,35.70
2019-05-23T11:06:16.123Z,36.10
2019-05-23T11:07:12.264Z,34.50
2019-05-23T11:08:14.163Z,35.30
2019-05-23T11:09:16.068Z,35.40
2019-05-23T11:10:18.700Z,34.70
2019-05-23T11:11:19.831Z,35.00
2019-05-23T11:12:20.941Z,35.30
2019-05-23T11:13:22.412Z,34.80
2019-05-23T11:14:23.953Z,35.00
2019-05-23T11:15:25.400Z,35.50
2019-05-23T11:16:27.277Z,34.00
2019-05-23T11:17:28.340Z,34.70
2019-05-23T11:18:29.780Z,34.90
2019-05-23T11:19:30.907Z,35.00
2019-05-23T11:20:35.442Z,34.90
2019-05-23T11:21:34.942Z,34.40
2019-05-23T11:22:36.072Z,34.30
2019-05-23T11:23:51.118Z,34.50
2019-05-23T11:24:52.132Z,33.80
2019-05-23T11:25:53.139Z,34.70
2019-05-23T11:26:54.165Z,33.90
2019-05-23T11:27:57.092Z,35.80
2019-05-23T11:28:58.405Z,36.10
2019-05-23T11:29:59.832Z,35.10
2019-05-23T11:31:00.957Z,34.30
2019-05-23T11:32:02.678Z,34.00
2019-05-23T11:33:03.800Z,34.30
2019-05-23T11:34:05.021Z,34.10
2019-05-23T11:35:06.535Z,35.40
2019-05-23T11:36:08.136Z,36.20
2019-05-23T11:37:09.179Z,34.20
2019-05-23T11:38:10.510Z,36.20
2019-05-23T11:39:13.442Z,35.70
2019-05-23T11:40:14.970Z,35.70
2019-05-23T11:41:16.509Z,36.40
2019-05-23T11:42:17.521Z,34.80
2019-05-23T11:43:18.533Z,36.00
2019-05-23T11:44:19.690Z,35.40
2019-05-23T11:45:21.848Z,34.70
2019-05-23T11:46:24.770Z,34.80
2019-05-23T11:47:25.901Z,35.20
2019-05-23T11:48:26.990Z,35.80
2019-05-23T11:49:28.315Z,34.80
2019-05-23T11:50:29.639Z,35.10
2019-05-23T11:51:30.869Z,34.70
2019-05-23T11:52:31.949Z,34.50
2019-05-23T11:53:33.777Z,35.90
2019-05-23T11:54:35.738Z,33.80
2019-05-23T11:55:36.757Z,34.80
2019-05-23T11:56:39.109Z,34.70
2019-05-23T11:57:40.128Z,34.20
2019-05-23T11:58:41.148Z,34.10
2019-05-23T11:59:42.265Z,34.00
2019-05-23T12:00:57.920Z,34.10
2019-05-23T12:02:09.981Z,33.80
2019-05-23T12:03:11.189Z,33.80
2019-05-23T12:04:16.808Z,32.70
2019-05-23T12:05:19.890Z,33.30
2019-05-23T12:06:25.755Z,32.70
2019-05-23T12:07:26.222Z,32.70
2019-05-23T12:08:27.532Z,33.30
2019-05-23T12:09:28.744Z,32.80
2019-05-23T12:10:29.896Z,33.10
2019-05-23T12:11:35.836Z,33.10
2019-05-23T12:12:34.510Z,32.80
2019-05-23T12:13:35.524Z,33.80
2019-05-23T12:14:37.581Z,34.20
2019-05-23T12:15:40.502Z,34.50
2019-05-23T12:16:41.577Z,34.60
2019-05-23T12:17:42.851Z,34.40
2019-05-23T12:18:44.069Z,30.20
2019-05-23T12:19:45.283Z,31.20
2019-05-23T12:20:46.293Z,31.90
2019-05-23T12:21:47.517Z,31.70
2019-05-23T12:22:48.904Z,33.40
2019-05-23T12:23:50.131Z,31.30
2019-05-23T12:24:51.237Z,32.40
2019-05-23T12:25:52.261Z,32.60
2019-05-23T12:26:53.661Z,32.10
2019-05-23T12:27:54.680Z,32.00
2019-05-23T12:28:55.802Z,31.80
2019-05-23T12:29:56.825Z,31.00
2019-05-23T12:30:58.173Z,31.50
2019-05-23T12:31:59.559Z,33.80
2019-05-23T12:33:00.585Z,31.80
2019-05-23T12:34:01.601Z,32.20
2019-05-23T12:35:11.006Z,31.50
2019-05-23T12:36:10.896Z,32.10
2019-05-23T12:37:18.951Z,32.80
2019-05-23T12:38:15.209Z,32.40
2019-05-23T12:39:16.325Z,32.70
2019-05-23T12:40:17.556Z,32.90
2019-05-23T12:41:18.690Z,34.00
2019-05-23T12:42:20.261Z,33.90
2019-05-23T12:43:21.484Z,33.40
2019-05-23T12:44:23.301Z,33.50
2019-05-23T12:45:24.326Z,34.10
2019-05-23T12:46:25.345Z,34.20
2019-05-23T12:47:28.263Z,33.70
2019-05-23T12:48:47.693Z,33.20
2019-05-23T12:49:50.766Z,32.80
2019-05-23T12:50:54.439Z,32.80
2019-05-23T12:51:57.100Z,31.80
2019-05-23T12:52:58.220Z,30.90
2019-05-23T12:53:59.328Z,30.70
2019-05-23T12:55:00.360Z,30.00
2019-05-23T12:56:02.499Z,30.10
2019-05-23T12:57:03.741Z,30.20
2019-05-23T12:58:04.863Z,30.40
2019-05-23T12:59:07.478Z,30.80
2019-05-23T13:00:11.112Z,31.80
2019-05-23T13:01:12.752Z,31.10
2019-05-23T13:02:15.061Z,29.60
2019-05-23T13:03:16.542Z,28.80
2019-05-23T13:04:17.762Z,28.10
2019-05-23T13:05:19.493Z,28.90
2019-05-23T13:06:21.023Z,28.70
2019-05-23T13:07:35.168Z,28.70
2019-05-23T13:08:25.777Z,28.30
2019-05-23T13:09:26.889Z,29.50
2019-05-23T13:10:28.025Z,29.00
2019-05-23T13:11:29.926Z,27.90
2019-05-23T13:12:30.977Z,28.50
2019-05-23T13:13:32.017Z,28.00
2019-05-23T13:14:33.025Z,27.60
2019-05-23T13:15:34.653Z,28.10
2019-05-23T13:16:35.906Z,28.20
2019-05-23T13:17:37.214Z,28.70
2019-05-23T13:18:38.220Z,28.60
2019-05-23T13:19:39.779Z,28.30
2019-05-23T13:20:41.421Z,28.50
2019-05-23T13:21:42.477Z,28.50
2019-05-23T13:22:43.592Z,28.80